Akkuduk, Kazakhstan
Current Conditions -  °F | °C
As of 1:00 AM on Sunday 26 Oct 2014 (Local Time) from UATE Reporting Station
Overcast Overcast  
Wind Chill: 23°   Ceiling: 2500
Heat Index: 28°   Visibility: 6mi
Dew Point: 25°   Wind: 4mph
Humidity: 86%   Direction: 20°NNE
Pressure: 30.42"   Gusts: NA
Location:  42.97°N, 54.12°E
Report Text: UATE 252100Z 02002MPS 9999 OVC025 M02/M04 Q1030 R12/2///50NOSIG RMK QFE771/1028
Loading
Personal Weather Stations






























Interactive Weather Map
Tropical Storm Tracking
New forecast layout! Learn more

10-Day Weather Forecast

Advertisements
Track Severe Weather on mobile